sensor_id;sensor_type;location;lat;lon;timestamp;pressure;altitude;pressure_sealevel;temperature;humidity
2549;BME280;1284;53.520;10.248;2023-07-13T00:02:07;100535.25;;;20.26;93.29
2549;BME280;1284;53.520;10.248;2023-07-13T00:04:33;100524.84;;;20.18;93.57
2549;BME280;1284;53.520;10.248;2023-07-13T00:06:58;100530.81;;;20.13;93.89
2549;BME280;1284;53.520;10.248;2023-07-13T00:09:24;100540.09;;;20.19;93.46
2549;BME280;1284;53.520;10.248;2023-07-13T00:14:40;100539.59;;;20.04;92.89
2549;BME280;1284;53.520;10.248;2023-07-13T00:17:05;100534.63;;;19.99;92.92
2549;BME280;1284;53.520;10.248;2023-07-13T00:19:31;100535.31;;;20.03;93.03
2549;BME280;1284;53.520;10.248;2023-07-13T00:21:57;100540.34;;;20.05;92.41
2549;BME280;1284;53.520;10.248;2023-07-13T00:24:22;100540.13;;;19.96;93.00
2549;BME280;1284;53.520;10.248;2023-07-13T00:26:49;100543.28;;;19.74;92.86
2549;BME280;1284;53.520;10.248;2023-07-13T00:29:14;100531.25;;;19.72;93.59
2549;BME280;1284;53.520;10.248;2023-07-13T00:31:41;100521.13;;;19.69;92.75
2549;BME280;1284;53.520;10.248;2023-07-13T00:34:07;100514.72;;;19.36;95.36
2549;BME280;1284;53.520;10.248;2023-07-13T00:36:32;100515.84;;;19.39;95.58
2549;BME280;1284;53.520;10.248;2023-07-13T00:38:58;100523.69;;;19.37;96.30
2549;BME280;1284;53.520;10.248;2023-07-13T00:41:24;100532.47;;;19.48;96.23
2549;BME280;1284;53.520;10.248;2023-07-13T00:43:49;100533.59;;;19.50;95.04
2549;BME280;1284;53.520;10.248;2023-07-13T00:46:22;100536.19;;;19.57;95.00
2549;BME280;1284;53.520;10.248;2023-07-13T00:48:50;100536.81;;;19.65;93.73
2549;BME280;1284;53.520;10.248;2023-07-13T00:54:07;100542.44;;;19.58;93.33
2549;BME280;1284;53.520;10.248;2023-07-13T00:56:36;100534.66;;;19.56;93.37
2549;BME280;1284;53.520;10.248;2023-07-13T00:59:03;100537.75;;;19.58;92.44
2549;BME280;1284;53.520;10.248;2023-07-13T01:01:29;100535.25;;;19.44;92.63
2549;BME280;1284;53.520;10.248;2023-07-13T01:03:55;100532.53;;;19.44;92.70
2549;BME280;1284;53.520;10.248;2023-07-13T01:06:22;100527.56;;;19.39;92.67
2549;BME280;1284;53.520;10.248;2023-07-13T01:08:48;100536.50;;;19.40;92.81
2549;BME280;1284;53.520;10.248;2023-07-13T01:11:18;100531.41;;;19.42;93.27
2549;BME280;1284;53.520;10.248;2023-07-13T01:13:44;100534.91;;;19.42;92.69
2549;BME280;1284;53.520;10.248;2023-07-13T01:19:25;100537.78;;;19.32;92.24
2549;BME280;1284;53.520;10.248;2023-07-13T01:22:02;100532.75;;;19.30;91.78
2549;BME280;1284;53.520;10.248;2023-07-13T01:24:28;100526.56;;;19.26;91.38
2549;BME280;1284;53.520;10.248;2023-07-13T01:26:54;100527.88;;;19.18;92.04
2549;BME280;1284;53.520;10.248;2023-07-13T01:29:20;100534.53;;;19.17;92.16
2549;BME280;1284;53.520;10.248;2023-07-13T01:31:46;100540.16;;;19.07;92.31
2549;BME280;1284;53.520;10.248;2023-07-13T01:34:12;100537.41;;;19.10;92.31
2549;BME280;1284;53.520;10.248;2023-07-13T01:36:38;100535.41;;;19.11;91.68
2549;BME280;1284;53.520;10.248;2023-07-13T01:39:04;100542.44;;;19.12;92.19
2549;BME280;1284;53.520;10.248;2023-07-13T01:41:30;100549.84;;;19.11;92.18
2549;BME280;1284;53.520;10.248;2023-07-13T01:43:55;100545.94;;;19.12;92.42
2549;BME280;1284;53.520;10.248;2023-07-13T01:46:21;100541.19;;;19.16;92.25
2549;BME280;1284;53.520;10.248;2023-07-13T01:48:46;100533.31;;;19.22;91.88
2549;BME280;1284;53.520;10.248;2023-07-13T01:51:12;100537.41;;;19.33;90.90
2549;BME280;1284;53.520;10.248;2023-07-13T01:53:38;100534.63;;;19.37;90.85
2549;BME280;1284;53.520;10.248;2023-07-13T01:56:04;100533.16;;;19.29;91.55
2549;BME280;1284;53.520;10.248;2023-07-13T01:58:30;100542.50;;;19.31;91.44
2549;BME280;1284;53.520;10.248;2023-07-13T02:00:55;100534.38;;;19.28;91.52
2549;BME280;1284;53.520;10.248;2023-07-13T02:03:20;100539.88;;;19.24;91.73
2549;BME280;1284;53.520;10.248;2023-07-13T02:05:46;100549.53;;;19.32;91.08
2549;BME280;1284;53.520;10.248;2023-07-13T02:08:12;100537.78;;;19.35;91.23
2549;BME280;1284;53.520;10.248;2023-07-13T02:10:37;100532.53;;;19.44;90.59
2549;BME280;1284;53.520;10.248;2023-07-13T02:13:06;100539.31;;;19.36;90.83
2549;BME280;1284;53.520;10.248;2023-07-13T02:15:32;100550.03;;;19.24;91.49
2549;BME280;1284;53.520;10.248;2023-07-13T02:17:58;100546.69;;;19.13;91.76
2549;BME280;1284;53.520;10.248;2023-07-13T02:20:24;100541.66;;;19.11;91.90
2549;BME280;1284;53.520;10.248;2023-07-13T02:22:51;100550.25;;;19.10;91.87
2549;BME280;1284;53.520;10.248;2023-07-13T02:25:20;100544.88;;;19.06;91.67
2549;BME280;1284;53.520;10.248;2023-07-13T02:27:48;100543.66;;;19.07;92.04
2549;BME280;1284;53.520;10.248;2023-07-13T02:30:14;100543.56;;;19.14;91.68
2549;BME280;1284;53.520;10.248;2023-07-13T02:32:40;100543.31;;;19.05;91.86
2549;BME280;1284;53.520;10.248;2023-07-13T02:35:06;100544.88;;;19.06;92.55
2549;BME280;1284;53.520;10.248;2023-07-13T02:37:31;100556.72;;;18.96;92.58
2549;BME280;1284;53.520;10.248;2023-07-13T02:39:57;100550.41;;;18.99;92.54
2549;BME280;1284;53.520;10.248;2023-07-13T02:42:22;100546.22;;;18.95;92.87
2549;BME280;1284;53.520;10.248;2023-07-13T02:44:48;100550.53;;;18.92;93.09
2549;BME280;1284;53.520;10.248;2023-07-13T02:47:14;100552.84;;;18.93;93.41
2549;BME280;1284;53.520;10.248;2023-07-13T02:49:40;100546.22;;;18.95;92.83
2549;BME280;1284;53.520;10.248;2023-07-13T02:52:06;100541.34;;;19.06;92.52
2549;BME280;1284;53.520;10.248;2023-07-13T02:54:31;100539.84;;;19.01;92.18
2549;BME280;1284;53.520;10.248;2023-07-13T02:56:57;100540.69;;;18.98;91.99
2549;BME280;1284;53.520;10.248;2023-07-13T02:59:23;100553.63;;;18.94;92.39
2549;BME280;1284;53.520;10.248;2023-07-13T03:01:48;100549.69;;;18.95;92.17
2549;BME280;1284;53.520;10.248;2023-07-13T03:04:14;100552.06;;;18.93;92.36
2549;BME280;1284;53.520;10.248;2023-07-13T03:06:40;100558.66;;;18.96;92.14
2549;BME280;1284;53.520;10.248;2023-07-13T03:09:05;100562.31;;;18.89;91.59
2549;BME280;1284;53.520;10.248;2023-07-13T03:11:33;100561.22;;;18.83;92.19
2549;BME280;1284;53.520;10.248;2023-07-13T03:14:07;100560.06;;;18.80;92.32
2549;BME280;1284;53.520;10.248;2023-07-13T03:16:35;100551.53;;;18.78;92.05
2549;BME280;1284;53.520;10.248;2023-07-13T03:19:01;100548.03;;;18.78;92.48
2549;BME280;1284;53.520;10.248;2023-07-13T03:21:27;100545.03;;;18.69;93.07
2549;BME280;1284;53.520;10.248;2023-07-13T03:23:53;100551.38;;;18.62;93.78
2549;BME280;1284;53.520;10.248;2023-07-13T03:26:20;100555.97;;;18.69;93.17
2549;BME280;1284;53.520;10.248;2023-07-13T03:28:49;100563.06;;;18.63;93.30
2549;BME280;1284;53.520;10.248;2023-07-13T03:31:22;100548.84;;;18.75;92.52
2549;BME280;1284;53.520;10.248;2023-07-13T03:33:49;100546.19;;;18.71;92.38
2549;BME280;1284;53.520;10.248;2023-07-13T03:36:19;100548.31;;;18.57;92.63
2549;BME280;1284;53.520;10.248;2023-07-13T03:38:50;100551.16;;;18.50;93.17
2549;BME280;1284;53.520;10.248;2023-07-13T03:41:18;100553.53;;;18.48;93.03
2549;BME280;1284;53.520;10.248;2023-07-13T03:43:47;100554.97;;;18.56;93.31
2549;BME280;1284;53.520;10.248;2023-07-13T03:46:18;100559.66;;;18.55;93.12
2549;BME280;1284;53.520;10.248;2023-07-13T03:48:45;100561.41;;;18.42;93.07
2549;BME280;1284;53.520;10.248;2023-07-13T03:51:13;100567.84;;;18.55;92.83
2549;BME280;1284;53.520;10.248;2023-07-13T03:53:42;100563.53;;;18.58;92.77
2549;BME280;1284;53.520;10.248;2023-07-13T03:56:09;100562.56;;;18.71;92.32
2549;BME280;1284;53.520;10.248;2023-07-13T03:58:37;100554.72;;;18.73;91.45
2549;BME280;1284;53.520;10.248;2023-07-13T04:01:10;100562.88;;;18.77;92.01
2549;BME280;1284;53.520;10.248;2023-07-13T04:03:38;100567.44;;;18.83;91.25
2549;BME280;1284;53.520;10.248;2023-07-13T04:06:06;100571.41;;;18.79;91.07
2549;BME280;1284;53.520;10.248;2023-07-13T04:08:36;100567.78;;;18.59;92.37
2549;BME280;1284;53.520;10.248;2023-07-13T04:11:04;100570.31;;;18.73;92.00
2549;BME280;1284;53.520;10.248;2023-07-13T04:13:29;100566.41;;;18.74;91.11
2549;BME280;1284;53.520;10.248;2023-07-13T04:15:55;100565.28;;;18.71;91.46
2549;BME280;1284;53.520;10.248;2023-07-13T04:18:21;100563.41;;;18.65;92.17
2549;BME280;1284;53.520;10.248;2023-07-13T04:20:47;100555.22;;;18.65;92.60
2549;BME280;1284;53.520;10.248;2023-07-13T04:23:13;100561.00;;;18.70;92.49
2549;BME280;1284;53.520;10.248;2023-07-13T04:25:38;100559.41;;;18.73;91.69
2549;BME280;1284;53.520;10.248;2023-07-13T04:28:04;100560.13;;;18.77;92.01
2549;BME280;1284;53.520;10.248;2023-07-13T04:30:30;100559.78;;;18.75;90.90
2549;BME280;1284;53.520;10.248;2023-07-13T04:32:55;100567.91;;;18.78;91.41
2549;BME280;1284;53.520;10.248;2023-07-13T04:35:20;100566.63;;;18.86;91.02
2549;BME280;1284;53.520;10.248;2023-07-13T04:37:48;100571.97;;;18.93;90.52
2549;BME280;1284;53.520;10.248;2023-07-13T04:40:16;100559.56;;;18.89;91.77
2549;BME280;1284;53.520;10.248;2023-07-13T04:42:42;100558.31;;;18.93;90.49
2549;BME280;1284;53.520;10.248;2023-07-13T04:45:07;100557.50;;;18.97;90.81
2549;BME280;1284;53.520;10.248;2023-07-13T04:47:33;100554.34;;;18.98;90.86
2549;BME280;1284;53.520;10.248;2023-07-13T04:49:58;100553.50;;;19.01;91.47
2549;BME280;1284;53.520;10.248;2023-07-13T04:52:24;100544.50;;;19.04;91.44
2549;BME280;1284;53.520;10.248;2023-07-13T04:54:50;100552.50;;;19.15;90.97
2549;BME280;1284;53.520;10.248;2023-07-13T04:57:15;100557.09;;;19.21;90.73
2549;BME280;1284;53.520;10.248;2023-07-13T04:59:42;100562.50;;;19.25;91.13
2549;BME280;1284;53.520;10.248;2023-07-13T05:02:07;100555.09;;;19.25;90.98
2549;BME280;1284;53.520;10.248;2023-07-13T05:04:33;100559.28;;;19.33;90.94
2549;BME280;1284;53.520;10.248;2023-07-13T05:09:45;100566.97;;;19.38;91.19
2549;BME280;1284;53.520;10.248;2023-07-13T05:12:10;100564.81;;;19.49;90.28
2549;BME280;1284;53.520;10.248;2023-07-13T05:14:36;100570.78;;;19.44;90.22
2549;BME280;1284;53.520;10.248;2023-07-13T05:17:02;100571.66;;;19.61;90.87
2549;BME280;1284;53.520;10.248;2023-07-13T05:19:27;100585.28;;;20.04;90.00
2549;BME280;1284;53.520;10.248;2023-07-13T05:21:53;100592.00;;;20.42;89.09
2549;BME280;1284;53.520;10.248;2023-07-13T05:24:18;100587.75;;;20.73;86.44
2549;BME280;1284;53.520;10.248;2023-07-13T05:26:44;100594.63;;;21.33;85.59
2549;BME280;1284;53.520;10.248;2023-07-13T05:29:12;100601.25;;;21.80;83.02
2549;BME280;1284;53.520;10.248;2023-07-13T05:31:38;100606.59;;;22.00;79.08
2549;BME280;1284;53.520;10.248;2023-07-13T05:34:03;100598.34;;;22.28;78.39
2549;BME280;1284;53.520;10.248;2023-07-13T05:36:28;100601.13;;;22.41;76.65
2549;BME280;1284;53.520;10.248;2023-07-13T05:38:54;100607.63;;;22.47;76.82
2549;BME280;1284;53.520;10.248;2023-07-13T05:41:19;100611.34;;;22.53;77.21
2549;BME280;1284;53.520;10.248;2023-07-13T05:43:45;100617.88;;;22.84;76.18
2549;BME280;1284;53.520;10.248;2023-07-13T05:46:10;100615.28;;;22.93;75.68
2549;BME280;1284;53.520;10.248;2023-07-13T05:48:35;100614.47;;;23.05;75.69
2549;BME280;1284;53.520;10.248;2023-07-13T05:51:01;100609.63;;;23.35;75.40
2549;BME280;1284;53.520;10.248;2023-07-13T05:53:26;100617.81;;;23.60;75.38
2549;BME280;1284;53.520;10.248;2023-07-13T05:55:54;100606.75;;;23.85;73.11
2549;BME280;1284;53.520;10.248;2023-07-13T05:58:19;100613.78;;;23.86;72.95
2549;BME280;1284;53.520;10.248;2023-07-13T06:00:48;100616.75;;;23.91;72.03
2549;BME280;1284;53.520;10.248;2023-07-13T06:03:23;100622.06;;;23.52;72.07
2549;BME280;1284;53.520;10.248;2023-07-13T06:05:48;100617.44;;;23.23;72.53
2549;BME280;1284;53.520;10.248;2023-07-13T06:08:14;100632.09;;;22.95;74.15
2549;BME280;1284;53.520;10.248;2023-07-13T06:10:39;100622.16;;;22.73;75.92
2549;BME280;1284;53.520;10.248;2023-07-13T06:13:04;100628.53;;;22.82;75.70
2549;BME280;1284;53.520;10.248;2023-07-13T06:15:30;100622.41;;;22.91;75.97
2549;BME280;1284;53.520;10.248;2023-07-13T06:17:55;100619.97;;;23.05;75.61
2549;BME280;1284;53.520;10.248;2023-07-13T06:20:21;100626.56;;;23.08;75.93
2549;BME280;1284;53.520;10.248;2023-07-13T06:22:47;100617.31;;;23.27;76.35
2549;BME280;1284;53.520;10.248;2023-07-13T06:25:13;100620.06;;;23.52;74.68
2549;BME280;1284;53.520;10.248;2023-07-13T06:27:38;100629.47;;;23.64;73.94
2549;BME280;1284;53.520;10.248;2023-07-13T06:30:04;100623.44;;;23.69;73.00
2549;BME280;1284;53.520;10.248;2023-07-13T06:32:29;100633.84;;;23.86;73.10
2549;BME280;1284;53.520;10.248;2023-07-13T06:34:55;100636.53;;;23.99;72.58
2549;BME280;1284;53.520;10.248;2023-07-13T06:37:21;100635.88;;;24.29;71.60
2549;BME280;1284;53.520;10.248;2023-07-13T06:39:46;100639.56;;;24.35;71.00
2549;BME280;1284;53.520;10.248;2023-07-13T06:42:11;100643.41;;;24.16;70.00
2549;BME280;1284;53.520;10.248;2023-07-13T06:44:37;100643.06;;;23.92;71.48
2549;BME280;1284;53.520;10.248;2023-07-13T06:47:02;100636.44;;;23.56;71.17
2549;BME280;1284;53.520;10.248;2023-07-13T06:49:28;100644.47;;;23.63;72.31
2549;BME280;1284;53.520;10.248;2023-07-13T06:51:54;100644.31;;;23.79;70.86
2549;BME280;1284;53.520;10.248;2023-07-13T06:54:19;100645.06;;;23.79;69.85
2549;BME280;1284;53.520;10.248;2023-07-13T06:56:45;100643.72;;;23.50;71.11
2549;BME280;1284;53.520;10.248;2023-07-13T06:59:10;100638.72;;;23.70;70.60
2549;BME280;1284;53.520;10.248;2023-07-13T07:01:35;100643.69;;;23.62;70.45
2549;BME280;1284;53.520;10.248;2023-07-13T07:04:01;100639.88;;;23.47;71.25
2549;BME280;1284;53.520;10.248;2023-07-13T07:06:26;100636.03;;;23.45;71.35
2549;BME280;1284;53.520;10.248;2023-07-13T07:08:52;100641.19;;;23.43;71.75
2549;BME280;1284;53.520;10.248;2023-07-13T07:11:23;100648.69;;;23.42;72.35
2549;BME280;1284;53.520;10.248;2023-07-13T07:13:50;100651.97;;;23.37;72.44
2549;BME280;1284;53.520;10.248;2023-07-13T07:16:17;100659.34;;;23.27;72.77
2549;BME280;1284;53.520;10.248;2023-07-13T07:18:43;100655.38;;;23.28;73.12
2549;BME280;1284;53.520;10.248;2023-07-13T07:21:08;100660.97;;;23.25;72.74
2549;BME280;1284;53.520;10.248;2023-07-13T07:23:34;100661.75;;;23.25;73.00
2549;BME280;1284;53.520;10.248;2023-07-13T07:25:59;100661.19;;;23.56;71.82
2549;BME280;1284;53.520;10.248;2023-07-13T07:28:25;100652.31;;;23.52;71.69
2549;BME280;1284;53.520;10.248;2023-07-13T07:30:55;100652.31;;;23.52;71.64
2549;BME280;1284;53.520;10.248;2023-07-13T07:33:21;100655.00;;;23.64;70.76
2549;BME280;1284;53.520;10.248;2023-07-13T07:35:46;100656.84;;;23.80;70.00
2549;BME280;1284;53.520;10.248;2023-07-13T07:38:12;100661.78;;;23.85;70.17
2549;BME280;1284;53.520;10.248;2023-07-13T07:40:39;100668.97;;;24.16;69.36
2549;BME280;1284;53.520;10.248;2023-07-13T07:43:06;100660.25;;;24.40;69.72
2549;BME280;1284;53.520;10.248;2023-07-13T07:45:32;100657.03;;;24.63;67.06
2549;BME280;1284;53.520;10.248;2023-07-13T07:47:58;100668.00;;;24.32;66.92
2549;BME280;1284;53.520;10.248;2023-07-13T07:50:28;100667.13;;;24.01;69.03
2549;BME280;1284;53.520;10.248;2023-07-13T07:52:54;100659.78;;;23.98;67.96
2549;BME280;1284;53.520;10.248;2023-07-13T07:55:21;100658.69;;;23.83;70.14
2549;BME280;1284;53.520;10.248;2023-07-13T07:57:48;100654.69;;;23.96;70.89
2549;BME280;1284;53.520;10.248;2023-07-13T08:00:14;100662.44;;;24.23;69.66
2549;BME280;1284;53.520;10.248;2023-07-13T08:02:43;100664.66;;;24.59;67.09
2549;BME280;1284;53.520;10.248;2023-07-13T08:05:09;100666.28;;;24.47;66.97
2549;BME280;1284;53.520;10.248;2023-07-13T08:07:38;100659.25;;;24.46;67.58
2549;BME280;1284;53.520;10.248;2023-07-13T08:10:05;100661.91;;;24.59;67.36
2549;BME280;1284;53.520;10.248;2023-07-13T08:12:38;100651.91;;;24.74;67.23
2549;BME280;1284;53.520;10.248;2023-07-13T08:15:06;100647.44;;;24.89;65.82
2549;BME280;1284;53.520;10.248;2023-07-13T08:17:32;100665.81;;;25.01;64.55
2549;BME280;1284;53.520;10.248;2023-07-13T08:19:57;100651.50;;;25.24;64.35
2549;BME280;1284;53.520;10.248;2023-07-13T08:22:23;100654.47;;;25.30;64.49
2549;BME280;1284;53.520;10.248;2023-07-13T08:24:48;100662.66;;;25.42;64.05
2549;BME280;1284;53.520;10.248;2023-07-13T08:27:22;100664.84;;;25.65;63.69
2549;BME280;1284;53.520;10.248;2023-07-13T08:29:48;100660.88;;;25.66;61.62
2549;BME280;1284;53.520;10.248;2023-07-13T08:32:14;100652.84;;;25.11;63.18
2549;BME280;1284;53.520;10.248;2023-07-13T08:34:39;100657.78;;;25.16;63.78
2549;BME280;1284;53.520;10.248;2023-07-13T08:37:06;100655.28;;;25.39;62.75
2549;BME280;1284;53.520;10.248;2023-07-13T08:39:32;100657.59;;;25.41;62.03
2549;BME280;1284;53.520;10.248;2023-07-13T08:42:19;100655.75;;;25.47;61.28
2549;BME280;1284;53.520;10.248;2023-07-13T08:45:04;100665.88;;;25.41;61.70
2549;BME280;1284;53.520;10.248;2023-07-13T08:47:35;100662.84;;;25.66;59.59
2549;BME280;1284;53.520;10.248;2023-07-13T08:50:08;100670.66;;;25.58;60.10
2549;BME280;1284;53.520;10.248;2023-07-13T08:52:38;100666.69;;;25.77;59.57
2549;BME280;1284;53.520;10.248;2023-07-13T08:55:12;100655.53;;;25.99;59.05
2549;BME280;1284;53.520;10.248;2023-07-13T08:57:40;100663.81;;;26.08;58.54
2549;BME280;1284;53.520;10.248;2023-07-13T09:02:59;100653.88;;;26.11;59.51
2549;BME280;1284;53.520;10.248;2023-07-13T09:05:38;100662.28;;;26.43;58.22
2549;BME280;1284;53.520;10.248;2023-07-13T09:08:08;100662.38;;;26.67;56.95
2549;BME280;1284;53.520;10.248;2023-07-13T09:10:47;100661.47;;;26.70;56.82
2549;BME280;1284;53.520;10.248;2023-07-13T09:15:59;100659.13;;;27.19;55.33
2549;BME280;1284;53.520;10.248;2023-07-13T09:18:46;100659.84;;;27.29;54.52
2549;BME280;1284;53.520;10.248;2023-07-13T09:21:23;100659.81;;;27.38;53.88
2549;BME280;1284;53.520;10.248;2023-07-13T09:23:56;100664.31;;;27.59;53.98
2549;BME280;1284;53.520;10.248;2023-07-13T09:26:28;100674.81;;;28.02;52.12
2549;BME280;1284;53.520;10.248;2023-07-13T09:29:06;100663.44;;;27.77;52.47
2549;BME280;1284;53.520;10.248;2023-07-13T09:31:37;100667.50;;;27.66;51.94
2549;BME280;1284;53.520;10.248;2023-07-13T09:34:09;100670.31;;;27.34;52.51
2549;BME280;1284;53.520;10.248;2023-07-13T09:36:35;100669.41;;;26.86;54.94
2549;BME280;1284;53.520;10.248;2023-07-13T09:39:16;100669.47;;;26.41;58.70
2549;BME280;1284;53.520;10.248;2023-07-13T09:44:16;100660.75;;;25.97;58.77
2549;BME280;1284;53.520;10.248;2023-07-13T09:46:46;100667.28;;;25.63;59.81
2549;BME280;1284;53.520;10.248;2023-07-13T09:49:12;100668.06;;;25.64;60.63
2549;BME280;1284;53.520;10.248;2023-07-13T09:51:40;100667.44;;;25.69;61.00
2549;BME280;1284;53.520;10.248;2023-07-13T09:54:09;100654.44;;;25.87;60.04
2549;BME280;1284;53.520;10.248;2023-07-13T09:56:42;100660.28;;;26.08;59.56
2549;BME280;1284;53.520;10.248;2023-07-13T09:59:19;100664.22;;;26.52;57.15
2549;BME280;1284;53.520;10.248;2023-07-13T10:01:45;100667.56;;;26.83;56.20
2549;BME280;1284;53.520;10.248;2023-07-13T10:04:17;100680.59;;;27.33;54.73
2549;BME280;1284;53.520;10.248;2023-07-13T10:06:45;100671.69;;;27.62;54.32
2549;BME280;1284;53.520;10.248;2023-07-13T10:09:15;100666.25;;;27.91;52.97
2549;BME280;1284;53.520;10.248;2023-07-13T10:11:41;100671.22;;;28.25;51.47
2549;BME280;1284;53.520;10.248;2023-07-13T10:14:20;100680.38;;;28.55;50.58
2549;BME280;1284;53.520;10.248;2023-07-13T10:16:48;100667.25;;;28.70;49.53
2549;BME280;1284;53.520;10.248;2023-07-13T10:19:25;100674.41;;;28.91;47.72
2549;BME280;1284;53.520;10.248;2023-07-13T10:22:02;100666.94;;;28.83;48.50
2549;BME280;1284;53.520;10.248;2023-07-13T10:24:31;100664.38;;;28.94;48.24
2549;BME280;1284;53.520;10.248;2023-07-13T10:27:03;100665.72;;;28.84;46.54
2549;BME280;1284;53.520;10.248;2023-07-13T10:29:36;100663.72;;;28.55;47.55
2549;BME280;1284;53.520;10.248;2023-07-13T10:32:11;100662.56;;;28.09;48.75
2549;BME280;1284;53.520;10.248;2023-07-13T10:34:37;100667.38;;;27.85;48.68
2549;BME280;1284;53.520;10.248;2023-07-13T10:37:05;100668.25;;;27.67;48.95
2549;BME280;1284;53.520;10.248;2023-07-13T10:39:34;100665.44;;;28.00;49.15
2549;BME280;1284;53.520;10.248;2023-07-13T10:42:08;100665.97;;;27.89;49.40
2549;BME280;1284;53.520;10.248;2023-07-13T10:44:52;100660.31;;;27.60;49.82
2549;BME280;1284;53.520;10.248;2023-07-13T10:47:18;100661.25;;;27.57;49.13
2549;BME280;1284;53.520;10.248;2023-07-13T10:49:44;100661.94;;;27.43;49.35
2549;BME280;1284;53.520;10.248;2023-07-13T10:52:46;100659.47;;;27.68;49.55
2549;BME280;1284;53.520;10.248;2023-07-13T10:58:00;100664.19;;;27.53;49.38
2549;BME280;1284;53.520;10.248;2023-07-13T11:00:26;100658.66;;;27.77;48.65
2549;BME280;1284;53.520;10.248;2023-07-13T11:02:59;100661.00;;;27.93;48.16
2549;BME280;1284;53.520;10.248;2023-07-13T11:05:31;100669.97;;;28.26;48.39
2549;BME280;1284;53.520;10.248;2023-07-13T11:08:58;100669.81;;;28.44;49.45
2549;BME280;1284;53.520;10.248;2023-07-13T11:10:54;100674.09;;;29.04;46.62
2549;BME280;1284;53.520;10.248;2023-07-13T11:13:57;100673.94;;;28.93;47.83
2549;BME280;1284;53.520;10.248;2023-07-13T11:19:08;100668.69;;;28.80;46.98
2549;BME280;1284;53.520;10.248;2023-07-13T11:22:02;100671.06;;;28.43;47.49
2549;BME280;1284;53.520;10.248;2023-07-13T11:24:58;100664.25;;;28.44;46.49
2549;BME280;1284;53.520;10.248;2023-07-13T11:27:45;100677.47;;;28.79;46.78
2549;BME280;1284;53.520;10.248;2023-07-13T11:35:44;100665.06;;;28.74;46.21
2549;BME280;1284;53.520;10.248;2023-07-13T11:41:04;100679.38;;;28.43;45.95
2549;BME280;1284;53.520;10.248;2023-07-13T11:43:30;100667.63;;;28.63;45.74
2549;BME280;1284;53.520;10.248;2023-07-13T11:45:55;100658.13;;;29.13;46.46
2549;BME280;1284;53.520;10.248;2023-07-13T11:48:28;100668.41;;;29.42;44.77
2549;BME280;1284;53.520;10.248;2023-07-13T11:51:03;100674.31;;;29.70;43.10
2549;BME280;1284;53.520;10.248;2023-07-13T11:53:39;100678.63;;;29.91;41.79
2549;BME280;1284;53.520;10.248;2023-07-13T11:56:06;100676.00;;;30.02;40.49
2549;BME280;1284;53.520;10.248;2023-07-13T11:58:32;100675.09;;;29.90;40.54
2549;BME280;1284;53.520;10.248;2023-07-13T12:01:00;100677.44;;;29.77;40.95
2549;BME280;1284;53.520;10.248;2023-07-13T12:03:27;100671.91;;;29.42;42.12
2549;BME280;1284;53.520;10.248;2023-07-13T12:05:59;100677.28;;;29.46;42.79
2549;BME280;1284;53.520;10.248;2023-07-13T12:08:26;100675.88;;;29.56;42.15
2549;BME280;1284;53.520;10.248;2023-07-13T12:11:04;100674.88;;;29.74;42.65
2549;BME280;1284;53.520;10.248;2023-07-13T12:13:39;100671.94;;;29.63;42.72
2549;BME280;1284;53.520;10.248;2023-07-13T12:16:17;100669.41;;;29.79;41.68
2549;BME280;1284;53.520;10.248;2023-07-13T12:18:47;100663.38;;;29.81;41.42
2549;BME280;1284;53.520;10.248;2023-07-13T12:21:17;100662.94;;;29.88;41.92
2549;BME280;1284;53.520;10.248;2023-07-13T12:23:45;100671.00;;;29.86;42.30
2549;BME280;1284;53.520;10.248;2023-07-13T12:26:12;100670.38;;;29.76;41.87
2549;BME280;1284;53.520;10.248;2023-07-13T12:31:25;100669.44;;;28.95;43.37
2549;BME280;1284;53.520;10.248;2023-07-13T12:34:10;100695.56;;;28.74;43.04
2549;BME280;1284;53.520;10.248;2023-07-13T12:36:51;100732.56;;;28.57;48.04
2549;BME280;1284;53.520;10.248;2023-07-13T12:39:23;100751.81;;;27.56;57.66
2549;BME280;1284;53.520;10.248;2023-07-13T12:41:51;100760.69;;;26.50;63.31
2549;BME280;1284;53.520;10.248;2023-07-13T12:44:21;100776.59;;;25.61;67.81
2549;BME280;1284;53.520;10.248;2023-07-13T12:47:03;100783.28;;;25.20;70.05
2549;BME280;1284;53.520;10.248;2023-07-13T12:49:32;100772.72;;;24.97;70.00
2549;BME280;1284;53.520;10.248;2023-07-13T12:52:02;100782.28;;;24.83;70.20
2549;BME280;1284;53.520;10.248;2023-07-13T12:54:30;100792.63;;;24.58;70.29
2549;BME280;1284;53.520;10.248;2023-07-13T12:56:57;100798.69;;;24.53;72.07
2549;BME280;1284;53.520;10.248;2023-07-13T12:59:25;100807.06;;;24.49;72.86
2549;BME280;1284;53.520;10.248;2023-07-13T13:01:56;100816.78;;;24.41;73.78
2549;BME280;1284;53.520;10.248;2023-07-13T13:04:22;100825.38;;;24.43;73.69
2549;BME280;1284;53.520;10.248;2023-07-13T13:06:48;100822.56;;;24.34;74.32
2549;BME280;1284;53.520;10.248;2023-07-13T13:09:16;100820.25;;;24.33;73.63
2549;BME280;1284;53.520;10.248;2023-07-13T13:11:43;100825.63;;;24.36;73.32
2549;BME280;1284;53.520;10.248;2023-07-13T13:14:09;100816.06;;;24.28;74.15
2549;BME280;1284;53.520;10.248;2023-07-13T13:16:37;100823.78;;;24.08;75.46
2549;BME280;1284;53.520;10.248;2023-07-13T13:19:25;100824.06;;;24.35;74.03
2549;BME280;1284;53.520;10.248;2023-07-13T13:21:54;100827.88;;;24.16;75.80
2549;BME280;1284;53.520;10.248;2023-07-13T13:24:24;100832.72;;;24.12;76.93
2549;BME280;1284;53.520;10.248;2023-07-13T13:26:51;100836.66;;;24.24;77.12
2549;BME280;1284;53.520;10.248;2023-07-13T13:29:22;100828.47;;;24.45;76.78
2549;BME280;1284;53.520;10.248;2023-07-13T13:31:52;100820.03;;;24.61;76.40
2549;BME280;1284;53.520;10.248;2023-07-13T13:34:19;100818.75;;;24.87;74.78
2549;BME280;1284;53.520;10.248;2023-07-13T13:36:47;100824.56;;;24.68;76.00
2549;BME280;1284;53.520;10.248;2023-07-13T13:39:29;100822.53;;;24.68;76.27
2549;BME280;1284;53.520;10.248;2023-07-13T13:41:56;100821.56;;;24.96;73.40
2549;BME280;1284;53.520;10.248;2023-07-13T13:44:22;100823.88;;;24.98;72.86